08:25
Airports
History
Links
Donate
Help me keep this website running!
Information on this page is community maintained and may be outdated or inaccurate and is intended for simulator navigating and reference only!
Always use approved charts for navigating.
0U8
MayUpdated 21-May-2014
May (0U8)
Patterson, Idaho, United States (83253)
4
Lat/Lng:44° 36' 37.2" N / 113° 53' 41.5" W
44.610333 / -113.894861
Elevation:5324' ft. / 1623 m MSL
Declination:E017°
ID / ICAO:0U8
FAA:0U8
Runways:1
Longest:[09 27] 1512.8 m, Grass
Controlled:No
Distance To
Airport ID:
Nearby VORs <50NM
Nearby NDBs
Nearby WeatherUpdated 08-24-16 08:15 GMT
Nearby weather at KSMN, Lemhi County located 35.5 nautical miles from 0U8
Altimeter: 30.21
Visibility: 10.0 statute miles
Wind: 3 knots (190°)
Temp: 9°c 48°f
Humidity: 61.5%

METAR: KSMN 240815Z AUTO 19003KT 10SM CLR 09/02 A3021 RMK AO1

(Powered by phpweather)
Runway 09 / 27
Dimensions:1512.8 x 61 m / 4963' x 200' ft
Surface:Grass
Runway 09 [A]Runway 27 [B]
Heading:090° M,  107° True270° M,   287° True
Lat:
Lng:
44° 36' 43.88"N
113° 54' 18.02"W
44° 36' 29.58"N
113° 53' 12.36"W
Google Map
Nearby Airports
(R) Flying Joseph Ranch 13.0 NM
0ID2 SSE 152°
(U) Challis 17.0 NM
KLLJ WSW 249°
(U) Leadore 27.0 NM
U00 E 80°
(U) Lemhi County 35.5 NM
KSMN (WX) N
4 Star s Ranch 44.0 NM
ID56 S 189°
4 Upper Loon Creek Usfs 45.7 NM
U72 W 268°
(U) Lower Loon Creek 46.9 NM
C53 WNW 286°
VFR Chart
Flight Planning at SkyVector.com